Athol, Kansas
Current Conditions -  °F | °C
As of 7:35 AM on Friday 19 Dec 2014 (Local Time) from KHDE Reporting Station
Moderate Fog Moderate Fog  
Wind Chill: 18°   Ceiling: 200
Heat Index: 26°   Visibility: 0.25mi
Dew Point: 25°   Wind: 7mph
Humidity: 95%   Direction: 250°WSW
Pressure: 30.13"   Gusts: NA
Location:  39.77°N, 98.92°W
Report Text: KHDE 191335Z AUTO 25006KT 1/4SM FZFG OVC002 M03/M04 A3013 RMK AO2 T10331040
Loading
Personal Weather Stations






























Interactive Weather Map New forecast layout! Learn more

10-Day Weather Forecast

Advertisements
Track Severe Weather on mobile